sensor_id;sensor_type;location;lat;lon;timestamp;P1;durP1;ratioP1;P2;durP2;ratioP2
72235;SDS011;60146;52.498;13.462;2023-04-06T00:02:22;11.27;;;5.27;;
72235;SDS011;60146;52.498;13.462;2023-04-06T00:04:47;8.77;;;5.27;;
72235;SDS011;60146;52.498;13.462;2023-04-06T00:07:13;8.13;;;5.10;;
72235;SDS011;60146;52.498;13.462;2023-04-06T00:09:38;10.23;;;4.80;;
72235;SDS011;60146;52.498;13.462;2023-04-06T00:12:04;10.07;;;5.20;;
72235;SDS011;60146;52.498;13.462;2023-04-06T00:14:29;10.33;;;5.03;;
72235;SDS011;60146;52.498;13.462;2023-04-06T00:16:55;11.47;;;5.30;;
72235;SDS011;60146;52.498;13.462;2023-04-06T00:19:20;9.83;;;5.10;;
72235;SDS011;60146;52.498;13.462;2023-04-06T00:21:46;10.37;;;5.00;;
72235;SDS011;60146;52.498;13.462;2023-04-06T00:24:11;10.30;;;5.07;;
72235;SDS011;60146;52.498;13.462;2023-04-06T00:26:37;9.50;;;5.20;;
72235;SDS011;60146;52.498;13.462;2023-04-06T00:29:02;11.50;;;5.10;;
72235;SDS011;60146;52.498;13.462;2023-04-06T00:31:27;8.57;;;4.63;;
72235;SDS011;60146;52.498;13.462;2023-04-06T00:33:53;9.67;;;5.07;;
72235;SDS011;60146;52.498;13.462;2023-04-06T00:36:19;10.20;;;5.60;;
72235;SDS011;60146;52.498;13.462;2023-04-06T00:38:45;9.17;;;4.87;;
72235;SDS011;60146;52.498;13.462;2023-04-06T00:41:11;14.70;;;5.80;;
72235;SDS011;60146;52.498;13.462;2023-04-06T00:43:36;11.80;;;5.60;;
72235;SDS011;60146;52.498;13.462;2023-04-06T00:46:02;9.67;;;5.23;;
72235;SDS011;60146;52.498;13.462;2023-04-06T00:48:27;10.03;;;5.97;;
72235;SDS011;60146;52.498;13.462;2023-04-06T00:50:52;11.03;;;5.40;;
72235;SDS011;60146;52.498;13.462;2023-04-06T00:53:18;8.80;;;4.90;;
72235;SDS011;60146;52.498;13.462;2023-04-06T00:55:43;11.63;;;5.43;;
72235;SDS011;60146;52.498;13.462;2023-04-06T00:58:09;11.17;;;5.20;;
72235;SDS011;60146;52.498;13.462;2023-04-06T01:00:34;11.97;;;5.67;;
72235;SDS011;60146;52.498;13.462;2023-04-06T01:03:00;9.77;;;5.50;;
72235;SDS011;60146;52.498;13.462;2023-04-06T01:05:26;9.47;;;5.53;;
72235;SDS011;60146;52.498;13.462;2023-04-06T01:07:51;11.97;;;5.87;;
72235;SDS011;60146;52.498;13.462;2023-04-06T01:10:24;12.23;;;6.30;;
72235;SDS011;60146;52.498;13.462;2023-04-06T01:12:50;9.07;;;5.67;;
72235;SDS011;60146;52.498;13.462;2023-04-06T01:15:16;10.20;;;5.83;;
72235;SDS011;60146;52.498;13.462;2023-04-06T01:17:42;7.87;;;4.57;;
72235;SDS011;60146;52.498;13.462;2023-04-06T01:20:07;9.17;;;5.40;;
72235;SDS011;60146;52.498;13.462;2023-04-06T01:22:33;11.00;;;5.50;;
72235;SDS011;60146;52.498;13.462;2023-04-06T01:24:58;11.37;;;5.70;;
72235;SDS011;60146;52.498;13.462;2023-04-06T01:27:23;10.50;;;5.40;;
72235;SDS011;60146;52.498;13.462;2023-04-06T01:29:51;10.73;;;5.37;;
72235;SDS011;60146;52.498;13.462;2023-04-06T01:32:18;12.37;;;5.33;;
72235;SDS011;60146;52.498;13.462;2023-04-06T01:34:45;10.93;;;5.70;;
72235;SDS011;60146;52.498;13.462;2023-04-06T01:37:53;13.80;;;6.03;;
72235;SDS011;60146;52.498;13.462;2023-04-06T01:40:55;11.27;;;6.17;;
72235;SDS011;60146;52.498;13.462;2023-04-06T01:43:21;10.00;;;4.80;;
72235;SDS011;60146;52.498;13.462;2023-04-06T01:45:47;10.07;;;5.20;;
72235;SDS011;60146;52.498;13.462;2023-04-06T01:48:12;13.33;;;6.63;;
72235;SDS011;60146;52.498;13.462;2023-04-06T01:50:38;9.97;;;5.50;;
72235;SDS011;60146;52.498;13.462;2023-04-06T01:53:03;9.93;;;5.30;;
72235;SDS011;60146;52.498;13.462;2023-04-06T01:55:29;10.93;;;5.47;;
72235;SDS011;60146;52.498;13.462;2023-04-06T01:57:54;10.13;;;5.97;;
72235;SDS011;60146;52.498;13.462;2023-04-06T02:00:20;10.27;;;6.40;;
72235;SDS011;60146;52.498;13.462;2023-04-06T02:02:45;9.60;;;5.67;;
72235;SDS011;60146;52.498;13.462;2023-04-06T02:05:11;12.77;;;6.20;;
72235;SDS011;60146;52.498;13.462;2023-04-06T02:07:36;19.33;;;6.23;;
72235;SDS011;60146;52.498;13.462;2023-04-06T02:10:02;12.73;;;5.53;;
72235;SDS011;60146;52.498;13.462;2023-04-06T02:12:27;14.80;;;5.97;;
72235;SDS011;60146;52.498;13.462;2023-04-06T02:14:53;15.30;;;7.67;;
72235;SDS011;60146;52.498;13.462;2023-04-06T02:17:18;8.63;;;5.60;;
72235;SDS011;60146;52.498;13.462;2023-04-06T02:19:44;10.33;;;6.10;;
72235;SDS011;60146;52.498;13.462;2023-04-06T02:22:09;14.77;;;6.23;;
72235;SDS011;60146;52.498;13.462;2023-04-06T02:24:35;10.80;;;5.63;;
72235;SDS011;60146;52.498;13.462;2023-04-06T02:27:01;11.03;;;5.83;;
72235;SDS011;60146;52.498;13.462;2023-04-06T02:29:26;12.17;;;7.03;;
72235;SDS011;60146;52.498;13.462;2023-04-06T02:31:52;12.93;;;6.73;;
72235;SDS011;60146;52.498;13.462;2023-04-06T02:34:17;10.43;;;6.40;;
72235;SDS011;60146;52.498;13.462;2023-04-06T02:36:44;16.10;;;7.27;;
72235;SDS011;60146;52.498;13.462;2023-04-06T02:39:10;10.63;;;6.33;;
72235;SDS011;60146;52.498;13.462;2023-04-06T02:41:36;13.00;;;7.37;;
72235;SDS011;60146;52.498;13.462;2023-04-06T02:44:01;11.97;;;6.77;;
72235;SDS011;60146;52.498;13.462;2023-04-06T02:46:27;11.27;;;6.37;;
72235;SDS011;60146;52.498;13.462;2023-04-06T02:48:53;9.63;;;6.23;;
72235;SDS011;60146;52.498;13.462;2023-04-06T02:51:18;12.97;;;6.60;;
72235;SDS011;60146;52.498;13.462;2023-04-06T02:53:44;10.77;;;6.50;;
72235;SDS011;60146;52.498;13.462;2023-04-06T02:56:09;16.70;;;6.70;;
72235;SDS011;60146;52.498;13.462;2023-04-06T02:58:35;13.30;;;7.20;;
72235;SDS011;60146;52.498;13.462;2023-04-06T03:01:01;13.50;;;6.00;;
72235;SDS011;60146;52.498;13.462;2023-04-06T03:10:11;15.73;;;6.90;;
72235;SDS011;60146;52.498;13.462;2023-04-06T03:12:37;14.10;;;6.77;;
72235;SDS011;60146;52.498;13.462;2023-04-06T03:15:02;12.57;;;6.33;;
72235;SDS011;60146;52.498;13.462;2023-04-06T03:17:28;12.03;;;6.83;;
72235;SDS011;60146;52.498;13.462;2023-04-06T03:19:53;13.13;;;6.67;;
72235;SDS011;60146;52.498;13.462;2023-04-06T03:22:19;13.93;;;7.40;;
72235;SDS011;60146;52.498;13.462;2023-04-06T03:24:45;14.67;;;7.50;;
72235;SDS011;60146;52.498;13.462;2023-04-06T03:27:11;10.60;;;6.50;;
72235;SDS011;60146;52.498;13.462;2023-04-06T03:29:36;10.97;;;6.53;;
72235;SDS011;60146;52.498;13.462;2023-04-06T03:32:02;13.50;;;7.03;;
72235;SDS011;60146;52.498;13.462;2023-04-06T03:34:27;11.93;;;6.97;;
72235;SDS011;60146;52.498;13.462;2023-04-06T03:36:53;12.37;;;7.30;;
72235;SDS011;60146;52.498;13.462;2023-04-06T03:39:18;13.57;;;6.80;;
72235;SDS011;60146;52.498;13.462;2023-04-06T03:41:44;13.23;;;6.70;;
72235;SDS011;60146;52.498;13.462;2023-04-06T03:44:09;12.47;;;6.60;;
72235;SDS011;60146;52.498;13.462;2023-04-06T03:46:35;16.83;;;6.83;;
72235;SDS011;60146;52.498;13.462;2023-04-06T03:49:00;10.90;;;6.23;;
72235;SDS011;60146;52.498;13.462;2023-04-06T03:51:26;15.13;;;7.20;;
72235;SDS011;60146;52.498;13.462;2023-04-06T03:53:52;12.93;;;6.63;;
72235;SDS011;60146;52.498;13.462;2023-04-06T03:56:18;13.97;;;6.83;;
72235;SDS011;60146;52.498;13.462;2023-04-06T03:58:43;17.53;;;7.27;;
72235;SDS011;60146;52.498;13.462;2023-04-06T04:01:10;14.73;;;7.20;;
72235;SDS011;60146;52.498;13.462;2023-04-06T04:03:35;15.57;;;7.97;;
72235;SDS011;60146;52.498;13.462;2023-04-06T04:06:01;12.10;;;6.90;;
72235;SDS011;60146;52.498;13.462;2023-04-06T04:08:27;12.97;;;7.40;;
72235;SDS011;60146;52.498;13.462;2023-04-06T04:10:52;16.37;;;7.87;;
72235;SDS011;60146;52.498;13.462;2023-04-06T04:13:17;13.97;;;7.97;;
72235;SDS011;60146;52.498;13.462;2023-04-06T04:15:43;17.23;;;8.13;;
72235;SDS011;60146;52.498;13.462;2023-04-06T04:18:09;15.43;;;7.60;;
72235;SDS011;60146;52.498;13.462;2023-04-06T04:20:34;17.13;;;7.80;;
72235;SDS011;60146;52.498;13.462;2023-04-06T04:23:00;16.30;;;8.30;;
72235;SDS011;60146;52.498;13.462;2023-04-06T04:25:25;27.47;;;8.83;;
72235;SDS011;60146;52.498;13.462;2023-04-06T04:27:51;15.37;;;7.40;;
72235;SDS011;60146;52.498;13.462;2023-04-06T04:30:16;18.47;;;8.30;;
72235;SDS011;60146;52.498;13.462;2023-04-06T04:32:42;13.20;;;7.23;;
72235;SDS011;60146;52.498;13.462;2023-04-06T04:35:07;17.33;;;7.87;;
72235;SDS011;60146;52.498;13.462;2023-04-06T04:37:33;15.30;;;7.70;;
72235;SDS011;60146;52.498;13.462;2023-04-06T04:40:00;14.73;;;7.23;;
72235;SDS011;60146;52.498;13.462;2023-04-06T04:42:25;15.90;;;7.27;;
72235;SDS011;60146;52.498;13.462;2023-04-06T04:44:51;20.13;;;6.43;;
72235;SDS011;60146;52.498;13.462;2023-04-06T04:47:16;15.50;;;6.97;;
72235;SDS011;60146;52.498;13.462;2023-04-06T04:49:42;14.93;;;6.30;;
72235;SDS011;60146;52.498;13.462;2023-04-06T04:52:07;14.60;;;6.47;;
72235;SDS011;60146;52.498;13.462;2023-04-06T04:54:33;13.60;;;6.27;;
72235;SDS011;60146;52.498;13.462;2023-04-06T04:56:58;16.47;;;6.10;;
72235;SDS011;60146;52.498;13.462;2023-04-06T04:59:24;13.47;;;5.97;;
72235;SDS011;60146;52.498;13.462;2023-04-06T05:01:49;14.13;;;6.20;;
72235;SDS011;60146;52.498;13.462;2023-04-06T05:04:15;13.07;;;5.70;;
72235;SDS011;60146;52.498;13.462;2023-04-06T05:06:40;16.70;;;5.73;;
72235;SDS011;60146;52.498;13.462;2023-04-06T05:09:05;18.47;;;6.10;;
72235;SDS011;60146;52.498;13.462;2023-04-06T05:11:31;15.90;;;7.03;;
72235;SDS011;60146;52.498;13.462;2023-04-06T05:13:56;15.13;;;6.30;;
72235;SDS011;60146;52.498;13.462;2023-04-06T05:16:22;15.50;;;6.27;;
72235;SDS011;60146;52.498;13.462;2023-04-06T05:18:47;20.30;;;7.87;;
72235;SDS011;60146;52.498;13.462;2023-04-06T05:21:13;19.20;;;6.30;;
72235;SDS011;60146;52.498;13.462;2023-04-06T05:23:39;11.03;;;5.47;;
72235;SDS011;60146;52.498;13.462;2023-04-06T05:26:04;16.43;;;6.07;;
72235;SDS011;60146;52.498;13.462;2023-04-06T05:28:30;14.00;;;5.60;;
72235;SDS011;60146;52.498;13.462;2023-04-06T05:30:55;13.27;;;5.93;;
72235;SDS011;60146;52.498;13.462;2023-04-06T05:33:22;13.70;;;5.77;;
72235;SDS011;60146;52.498;13.462;2023-04-06T05:35:48;19.33;;;6.10;;
72235;SDS011;60146;52.498;13.462;2023-04-06T05:38:13;14.00;;;6.43;;
72235;SDS011;60146;52.498;13.462;2023-04-06T05:40:38;14.43;;;5.43;;
72235;SDS011;60146;52.498;13.462;2023-04-06T05:43:06;12.93;;;6.00;;
72235;SDS011;60146;52.498;13.462;2023-04-06T05:45:32;14.93;;;5.80;;
72235;SDS011;60146;52.498;13.462;2023-04-06T05:47:57;16.00;;;6.10;;
72235;SDS011;60146;52.498;13.462;2023-04-06T05:50:22;14.90;;;5.67;;
72235;SDS011;60146;52.498;13.462;2023-04-06T05:52:48;19.23;;;5.97;;
72235;SDS011;60146;52.498;13.462;2023-04-06T05:55:13;14.40;;;5.33;;
72235;SDS011;60146;52.498;13.462;2023-04-06T05:57:39;10.43;;;5.60;;
72235;SDS011;60146;52.498;13.462;2023-04-06T06:00:05;10.57;;;4.83;;
72235;SDS011;60146;52.498;13.462;2023-04-06T06:02:33;12.60;;;5.33;;
72235;SDS011;60146;52.498;13.462;2023-04-06T06:04:59;15.67;;;5.17;;
72235;SDS011;60146;52.498;13.462;2023-04-06T06:07:25;14.33;;;5.77;;
72235;SDS011;60146;52.498;13.462;2023-04-06T06:09:50;14.93;;;5.50;;
72235;SDS011;60146;52.498;13.462;2023-04-06T06:12:15;10.93;;;5.27;;
72235;SDS011;60146;52.498;13.462;2023-04-06T06:14:41;12.43;;;5.30;;
72235;SDS011;60146;52.498;13.462;2023-04-06T06:17:07;10.07;;;5.40;;
72235;SDS011;60146;52.498;13.462;2023-04-06T06:19:33;12.73;;;5.50;;
72235;SDS011;60146;52.498;13.462;2023-04-06T06:21:59;10.63;;;5.30;;
72235;SDS011;60146;52.498;13.462;2023-04-06T06:24:27;17.17;;;5.27;;
72235;SDS011;60146;52.498;13.462;2023-04-06T06:26:53;12.23;;;5.50;;
72235;SDS011;60146;52.498;13.462;2023-04-06T06:29:19;16.70;;;6.40;;
72235;SDS011;60146;52.498;13.462;2023-04-06T06:31:45;12.97;;;5.30;;
72235;SDS011;60146;52.498;13.462;2023-04-06T06:34:10;12.53;;;5.43;;
72235;SDS011;60146;52.498;13.462;2023-04-06T06:36:37;13.67;;;6.10;;
72235;SDS011;60146;52.498;13.462;2023-04-06T06:39:03;11.20;;;4.80;;
72235;SDS011;60146;52.498;13.462;2023-04-06T06:41:29;9.87;;;5.03;;
72235;SDS011;60146;52.498;13.462;2023-04-06T06:43:54;12.43;;;5.50;;
72235;SDS011;60146;52.498;13.462;2023-04-06T06:46:20;11.43;;;5.17;;
72235;SDS011;60146;52.498;13.462;2023-04-06T06:48:46;11.33;;;5.07;;
72235;SDS011;60146;52.498;13.462;2023-04-06T06:51:11;13.63;;;5.33;;
72235;SDS011;60146;52.498;13.462;2023-04-06T06:53:37;10.57;;;4.90;;
72235;SDS011;60146;52.498;13.462;2023-04-06T06:56:02;13.57;;;5.47;;
72235;SDS011;60146;52.498;13.462;2023-04-06T06:58:28;15.70;;;5.50;;
72235;SDS011;60146;52.498;13.462;2023-04-06T07:00:57;9.80;;;5.10;;
72235;SDS011;60146;52.498;13.462;2023-04-06T07:03:23;15.20;;;5.50;;
72235;SDS011;60146;52.498;13.462;2023-04-06T07:05:49;9.23;;;4.90;;
72235;SDS011;60146;52.498;13.462;2023-04-06T07:08:23;16.63;;;5.47;;
72235;SDS011;60146;52.498;13.462;2023-04-06T07:10:50;11.00;;;4.80;;
72235;SDS011;60146;52.498;13.462;2023-04-06T07:13:17;13.07;;;4.90;;
72235;SDS011;60146;52.498;13.462;2023-04-06T07:15:47;9.57;;;5.07;;
72235;SDS011;60146;52.498;13.462;2023-04-06T07:18:12;10.43;;;4.83;;
72235;SDS011;60146;52.498;13.462;2023-04-06T07:20:38;12.00;;;5.83;;
72235;SDS011;60146;52.498;13.462;2023-04-06T07:23:03;10.70;;;4.80;;
72235;SDS011;60146;52.498;13.462;2023-04-06T07:25:29;9.40;;;5.07;;
72235;SDS011;60146;52.498;13.462;2023-04-06T07:27:55;9.87;;;4.80;;
72235;SDS011;60146;52.498;13.462;2023-04-06T07:30:22;19.27;;;5.27;;
72235;SDS011;60146;52.498;13.462;2023-04-06T07:32:48;9.93;;;4.53;;
72235;SDS011;60146;52.498;13.462;2023-04-06T07:35:14;8.30;;;4.10;;
72235;SDS011;60146;52.498;13.462;2023-04-06T07:37:39;15.80;;;4.40;;
72235;SDS011;60146;52.498;13.462;2023-04-06T07:40:05;10.03;;;4.00;;
72235;SDS011;60146;52.498;13.462;2023-04-06T07:42:31;15.43;;;4.70;;
72235;SDS011;60146;52.498;13.462;2023-04-06T07:44:58;11.67;;;4.70;;
72235;SDS011;60146;52.498;13.462;2023-04-06T07:47:23;14.33;;;6.03;;
72235;SDS011;60146;52.498;13.462;2023-04-06T07:49:49;16.90;;;5.80;;
72235;SDS011;60146;52.498;13.462;2023-04-06T07:52:15;23.13;;;8.50;;
72235;SDS011;60146;52.498;13.462;2023-04-06T07:54:40;20.40;;;8.23;;
72235;SDS011;60146;52.498;13.462;2023-04-06T07:57:06;20.43;;;7.90;;
72235;SDS011;60146;52.498;13.462;2023-04-06T07:59:32;15.27;;;6.67;;
72235;SDS011;60146;52.498;13.462;2023-04-06T08:01:57;49.73;;;8.67;;
72235;SDS011;60146;52.498;13.462;2023-04-06T08:04:22;13.33;;;6.40;;
72235;SDS011;60146;52.498;13.462;2023-04-06T08:06:48;15.47;;;4.57;;
72235;SDS011;60146;52.498;13.462;2023-04-06T08:09:13;10.93;;;4.47;;
72235;SDS011;60146;52.498;13.462;2023-04-06T08:11:39;11.90;;;3.37;;
72235;SDS011;60146;52.498;13.462;2023-04-06T08:14:05;7.17;;;3.10;;
72235;SDS011;60146;52.498;13.462;2023-04-06T08:16:31;6.33;;;3.20;;
72235;SDS011;60146;52.498;13.462;2023-04-06T08:18:56;11.03;;;2.87;;
72235;SDS011;60146;52.498;13.462;2023-04-06T08:21:22;11.37;;;2.70;;
72235;SDS011;60146;52.498;13.462;2023-04-06T08:24:03;7.13;;;2.70;;
72235;SDS011;60146;52.498;13.462;2023-04-06T08:27:09;8.20;;;2.80;;
72235;SDS011;60146;52.498;13.462;2023-04-06T08:30:19;6.90;;;2.23;;
72235;SDS011;60146;52.498;13.462;2023-04-06T08:32:45;5.97;;;2.60;;
72235;SDS011;60146;52.498;13.462;2023-04-06T08:35:11;13.00;;;3.70;;
72235;SDS011;60146;52.498;13.462;2023-04-06T08:37:37;14.87;;;3.07;;
72235;SDS011;60146;52.498;13.462;2023-04-06T08:40:02;6.67;;;2.50;;
72235;SDS011;60146;52.498;13.462;2023-04-06T08:42:28;6.77;;;2.37;;
72235;SDS011;60146;52.498;13.462;2023-04-06T08:44:57;5.23;;;2.50;;
72235;SDS011;60146;52.498;13.462;2023-04-06T08:47:23;6.70;;;1.93;;
72235;SDS011;60146;52.498;13.462;2023-04-06T08:49:49;10.37;;;2.17;;
72235;SDS011;60146;52.498;13.462;2023-04-06T08:52:17;4.73;;;2.03;;
72235;SDS011;60146;52.498;13.462;2023-04-06T08:54:44;3.50;;;2.07;;
72235;SDS011;60146;52.498;13.462;2023-04-06T08:57:09;3.83;;;1.93;;
72235;SDS011;60146;52.498;13.462;2023-04-06T08:59:35;7.20;;;1.97;;
72235;SDS011;60146;52.498;13.462;2023-04-06T09:02:04;5.80;;;2.25;;
72235;SDS011;60146;52.498;13.462;2023-04-06T09:04:36;3.60;;;2.00;;
72235;SDS011;60146;52.498;13.462;2023-04-06T09:07:02;7.13;;;2.05;;
72235;SDS011;60146;52.498;13.462;2023-04-06T09:09:27;4.32;;;1.95;;
72235;SDS011;60146;52.498;13.462;2023-04-06T09:11:53;4.95;;;2.33;;
72235;SDS011;60146;52.498;13.462;2023-04-06T09:14:37;4.53;;;2.05;;
72235;SDS011;60146;52.498;13.462;2023-04-06T09:17:04;8.25;;;2.58;;
72235;SDS011;60146;52.498;13.462;2023-04-06T09:19:30;5.38;;;1.92;;
72235;SDS011;60146;52.498;13.462;2023-04-06T09:22:10;3.75;;;1.90;;
72235;SDS011;60146;52.498;13.462;2023-04-06T09:24:43;5.90;;;2.20;;
72235;SDS011;60146;52.498;13.462;2023-04-06T09:27:15;11.55;;;2.30;;
72235;SDS011;60146;52.498;13.462;2023-04-06T09:29:42;4.45;;;1.85;;
72235;SDS011;60146;52.498;13.462;2023-04-06T09:32:09;4.88;;;1.70;;
72235;SDS011;60146;52.498;13.462;2023-04-06T09:34:39;36.45;;;5.13;;
72235;SDS011;60146;52.498;13.462;2023-04-06T09:39:40;4.97;;;1.58;;
72235;SDS011;60146;52.498;13.462;2023-04-06T09:42:06;4.70;;;1.52;;
72235;SDS011;60146;52.498;13.462;2023-04-06T09:44:31;3.72;;;2.30;;
72235;SDS011;60146;52.498;13.462;2023-04-06T09:46:57;4.78;;;2.00;;
72235;SDS011;60146;52.498;13.462;2023-04-06T09:49:22;6.18;;;2.22;;
72235;SDS011;60146;52.498;13.462;2023-04-06T09:51:53;4.15;;;1.90;;
72235;SDS011;60146;52.498;13.462;2023-04-06T09:54:22;6.47;;;1.98;;
72235;SDS011;60146;52.498;13.462;2023-04-06T09:56:55;5.93;;;1.98;;
72235;SDS011;60146;52.498;13.462;2023-04-06T10:02:05;11.40;;;1.80;;
72235;SDS011;60146;52.498;13.462;2023-04-06T10:04:53;3.53;;;1.40;;
72235;SDS011;60146;52.498;13.462;2023-04-06T10:07:23;4.45;;;2.80;;
72235;SDS011;60146;52.498;13.462;2023-04-06T10:09:51;4.43;;;1.60;;
72235;SDS011;60146;52.498;13.462;2023-04-06T10:12:19;7.28;;;1.85;;
72235;SDS011;60146;52.498;13.462;2023-04-06T10:14:45;7.57;;;2.45;;
72235;SDS011;60146;52.498;13.462;2023-04-06T10:17:11;2.60;;;1.70;;
72235;SDS011;60146;52.498;13.462;2023-04-06T10:22:24;7.82;;;2.13;;
72235;SDS011;60146;52.498;13.462;2023-04-06T10:24:54;4.22;;;1.50;;
72235;SDS011;60146;52.498;13.462;2023-04-06T10:27:29;2.08;;;1.45;;
72235;SDS011;60146;52.498;13.462;2023-04-06T10:30:00;4.80;;;1.50;;
72235;SDS011;60146;52.498;13.462;2023-04-06T10:35:06;3.60;;;1.60;;
72235;SDS011;60146;52.498;13.462;2023-04-06T10:38:00;2.05;;;1.45;;
72235;SDS011;60146;52.498;13.462;2023-04-06T10:40:27;2.80;;;1.40;;
72235;SDS011;60146;52.498;13.462;2023-04-06T10:42:54;4.90;;;1.50;;
72235;SDS011;60146;52.498;13.462;2023-04-06T10:47:53;4.93;;;1.50;;
72235;SDS011;60146;52.498;13.462;2023-04-06T10:50:19;2.90;;;1.40;;
72235;SDS011;60146;52.498;13.462;2023-04-06T10:52:45;3.33;;;1.65;;
72235;SDS011;60146;52.498;13.462;2023-04-06T10:55:14;2.60;;;1.52;;
72235;SDS011;60146;52.498;13.462;2023-04-06T10:57:40;3.00;;;1.50;;
72235;SDS011;60146;52.498;13.462;2023-04-06T11:00:06;3.03;;;1.77;;
72235;SDS011;60146;52.498;13.462;2023-04-06T11:02:33;5.97;;;1.80;;
72235;SDS011;60146;52.498;13.462;2023-04-06T11:05:00;1.90;;;1.38;;
72235;SDS011;60146;52.498;13.462;2023-04-06T11:07:26;2.28;;;1.35;;
72235;SDS011;60146;52.498;13.462;2023-04-06T11:09:54;2.47;;;1.27;;
72235;SDS011;60146;52.498;13.462;2023-04-06T11:12:29;4.45;;;1.55;;
72235;SDS011;60146;52.498;13.462;2023-04-06T11:14:56;3.50;;;1.55;;
72235;SDS011;60146;52.498;13.462;2023-04-06T11:17:28;3.75;;;1.60;;
72235;SDS011;60146;52.498;13.462;2023-04-06T11:19:54;2.60;;;1.50;;
72235;SDS011;60146;52.498;13.462;2023-04-06T11:22:20;5.72;;;1.70;;
72235;SDS011;60146;52.498;13.462;2023-04-06T11:24:45;3.53;;;1.80;;
72235;SDS011;60146;52.498;13.462;2023-04-06T11:27:11;3.45;;;1.42;;
72235;SDS011;60146;52.498;13.462;2023-04-06T11:29:37;2.08;;;1.45;;
72235;SDS011;60146;52.498;13.462;2023-04-06T11:32:06;6.90;;;1.80;;
72235;SDS011;60146;52.498;13.462;2023-04-06T11:34:36;2.88;;;1.70;;
72235;SDS011;60146;52.498;13.462;2023-04-06T11:37:18;3.78;;;1.45;;
72235;SDS011;60146;52.498;13.462;2023-04-06T11:39:51;2.88;;;1.48;;
72235;SDS011;60146;52.498;13.462;2023-04-06T11:42:22;3.15;;;1.80;;
72235;SDS011;60146;52.498;13.462;2023-04-06T11:47:19;1.60;;;1.50;;
72235;SDS011;60146;52.498;13.462;2023-04-06T11:49:45;2.47;;;1.50;;
72235;SDS011;60146;52.498;13.462;2023-04-06T11:52:18;1.67;;;1.40;;
72235;SDS011;60146;52.498;13.462;2023-04-06T11:54:44;4.55;;;1.60;;
72235;SDS011;60146;52.498;13.462;2023-04-06T11:57:11;4.03;;;1.98;;
72235;SDS011;60146;52.498;13.462;2023-04-06T11:59:36;6.53;;;1.70;;
72235;SDS011;60146;52.498;13.462;2023-04-06T12:02:02;4.35;;;2.35;;
72235;SDS011;60146;52.498;13.462;2023-04-06T12:04:29;5.10;;;2.05;;
72235;SDS011;60146;52.498;13.462;2023-04-06T12:06:55;4.65;;;1.70;;
72235;SDS011;60146;52.498;13.462;2023-04-06T12:09:21;2.13;;;1.65;;
72235;SDS011;60146;52.498;13.462;2023-04-06T12:11:46;3.88;;;1.88;;
72235;SDS011;60146;52.498;13.462;2023-04-06T12:14:12;8.77;;;3.13;;
72235;SDS011;60146;52.498;13.462;2023-04-06T12:16:38;4.82;;;1.80;;
72235;SDS011;60146;52.498;13.462;2023-04-06T12:19:04;9.93;;;2.38;;
72235;SDS011;60146;52.498;13.462;2023-04-06T12:21:30;4.32;;;1.52;;
72235;SDS011;60146;52.498;13.462;2023-04-06T12:23:59;3.40;;;1.70;;
72235;SDS011;60146;52.498;13.462;2023-04-06T12:28:51;3.42;;;1.92;;
72235;SDS011;60146;52.498;13.462;2023-04-06T12:31:17;11.43;;;2.58;;
72235;SDS011;60146;52.498;13.462;2023-04-06T12:33:46;2.63;;;1.75;;
72235;SDS011;60146;52.498;13.462;2023-04-06T12:36:12;2.85;;;1.50;;
72235;SDS011;60146;52.498;13.462;2023-04-06T12:38:39;7.55;;;1.75;;
72235;SDS011;60146;52.498;13.462;2023-04-06T12:41:06;3.95;;;1.80;;
72235;SDS011;60146;52.498;13.462;2023-04-06T12:43:32;10.85;;;2.13;;
72235;SDS011;60146;52.498;13.462;2023-04-06T12:45:57;13.45;;;2.22;;
72235;SDS011;60146;52.498;13.462;2023-04-06T12:48:24;12.60;;;5.50;;
72235;SDS011;60146;52.498;13.462;2023-04-06T12:50:57;14.38;;;4.72;;
72235;SDS011;60146;52.498;13.462;2023-04-06T12:53:26;7.72;;;1.90;;
72235;SDS011;60146;52.498;13.462;2023-04-06T12:55:53;5.22;;;1.83;;
72235;SDS011;60146;52.498;13.462;2023-04-06T12:58:20;21.33;;;2.92;;
72235;SDS011;60146;52.498;13.462;2023-04-06T13:00:48;4.80;;;1.80;;
72235;SDS011;60146;52.498;13.462;2023-04-06T13:03:18;4.82;;;1.80;;
72235;SDS011;60146;52.498;13.462;2023-04-06T13:05:46;5.32;;;2.03;;
72235;SDS011;60146;52.498;13.462;2023-04-06T13:08:12;4.25;;;1.80;;
72235;SDS011;60146;52.498;13.462;2023-04-06T13:10:43;3.47;;;1.50;;
72235;SDS011;60146;52.498;13.462;2023-04-06T13:13:13;3.00;;;1.75;;
72235;SDS011;60146;52.498;13.462;2023-04-06T13:15:39;3.47;;;1.52;;
72235;SDS011;60146;52.498;13.462;2023-04-06T13:18:04;3.92;;;1.50;;
72235;SDS011;60146;52.498;13.462;2023-04-06T13:20:30;3.92;;;1.60;;
72235;SDS011;60146;52.498;13.462;2023-04-06T13:22:55;5.15;;;1.80;;
72235;SDS011;60146;52.498;13.462;2023-04-06T13:25:21;24.33;;;3.10;;
72235;SDS011;60146;52.498;13.462;2023-04-06T13:27:46;4.32;;;1.98;;
72235;SDS011;60146;52.498;13.462;2023-04-06T13:30:14;4.10;;;1.92;;
72235;SDS011;60146;52.498;13.462;2023-04-06T13:32:40;1.83;;;1.60;;
72235;SDS011;60146;52.498;13.462;2023-04-06T13:35:06;8.55;;;2.20;;
72235;SDS011;60146;52.498;13.462;2023-04-06T13:37:36;7.35;;;2.65;;
72235;SDS011;60146;52.498;13.462;2023-04-06T13:40:02;4.68;;;1.80;;
72235;SDS011;60146;52.498;13.462;2023-04-06T13:42:29;4.20;;;1.60;;
72235;SDS011;60146;52.498;13.462;2023-04-06T13:44:55;3.97;;;1.88;;
72235;SDS011;60146;52.498;13.462;2023-04-06T13:47:20;13.75;;;2.40;;
72235;SDS011;60146;52.498;13.462;2023-04-06T13:49:47;7.47;;;2.15;;
72235;SDS011;60146;52.498;13.462;2023-04-06T13:52:12;5.15;;;2.00;;
72235;SDS011;60146;52.498;13.462;2023-04-06T13:54:38;3.28;;;1.90;;
72235;SDS011;60146;52.498;13.462;2023-04-06T13:57:03;6.43;;;1.88;;
72235;SDS011;60146;52.498;13.462;2023-04-06T13:59:33;4.18;;;1.83;;
72235;SDS011;60146;52.498;13.462;2023-04-06T14:02:00;7.07;;;2.38;;
72235;SDS011;60146;52.498;13.462;2023-04-06T14:04:27;3.83;;;1.90;;
72235;SDS011;60146;52.498;13.462;2023-04-06T14:06:53;9.27;;;2.80;;
72235;SDS011;60146;52.498;13.462;2023-04-06T14:09:18;2.58;;;1.55;;
72235;SDS011;60146;52.498;13.462;2023-04-06T14:11:44;4.93;;;2.40;;
72235;SDS011;60146;52.498;13.462;2023-04-06T14:14:09;5.85;;;3.22;;
72235;SDS011;60146;52.498;13.462;2023-04-06T14:16:34;5.72;;;2.95;;
72235;SDS011;60146;52.498;13.462;2023-04-06T14:19:00;4.18;;;1.65;;
72235;SDS011;60146;52.498;13.462;2023-04-06T14:21:25;5.93;;;1.60;;
72235;SDS011;60146;52.498;13.462;2023-04-06T14:23:51;2.22;;;1.73;;
72235;SDS011;60146;52.498;13.462;2023-04-06T14:26:17;3.50;;;1.80;;
72235;SDS011;60146;52.498;13.462;2023-04-06T14:28:43;5.18;;;1.65;;
72235;SDS011;60146;52.498;13.462;2023-04-06T14:31:11;5.38;;;1.98;;
72235;SDS011;60146;52.498;13.462;2023-04-06T14:33:38;3.55;;;2.00;;
72235;SDS011;60146;52.498;13.462;2023-04-06T14:36:04;4.83;;;1.77;;
72235;SDS011;60146;52.498;13.462;2023-04-06T14:38:34;3.40;;;1.80;;
72235;SDS011;60146;52.498;13.462;2023-04-06T14:40:59;5.40;;;1.87;;
72235;SDS011;60146;52.498;13.462;2023-04-06T14:43:25;4.13;;;1.60;;
72235;SDS011;60146;52.498;13.462;2023-04-06T14:45:51;3.37;;;1.80;;
72235;SDS011;60146;52.498;13.462;2023-04-06T14:48:16;3.60;;;1.80;;
72235;SDS011;60146;52.498;13.462;2023-04-06T14:50:51;2.30;;;1.60;;
72235;SDS011;60146;52.498;13.462;2023-04-06T14:53:18;3.07;;;1.70;;